createdAt,value
2022-12-19T00:00:02.187Z,-1.93
2022-12-19T00:00:14.912Z,-1.93
2022-12-19T00:00:25.996Z,-1.93
2022-12-19T00:00:36.766Z,-1.93
2022-12-19T00:00:47.566Z,-1.92
2022-12-19T00:01:00.025Z,-1.95
2022-12-19T00:01:12.296Z,-1.93
2022-12-19T00:01:23.138Z,-1.93
2022-12-19T00:01:34.047Z,-1.93
2022-12-19T00:01:45.930Z,-1.93
2022-12-19T00:01:59.045Z,-1.93
2022-12-19T00:02:11.029Z,-1.93
2022-12-19T00:02:23.592Z,-1.95
2022-12-19T00:02:36.171Z,-1.93
2022-12-19T00:02:48.078Z,-1.93
2022-12-19T00:03:01.646Z,-1.93
2022-12-19T00:03:12.563Z,-1.93
2022-12-19T00:03:25.213Z,-1.92
2022-12-19T00:03:36.059Z,-1.92
2022-12-19T00:03:47.890Z,-1.92
2022-12-19T00:03:59.789Z,-1.92
2022-12-19T00:04:10.648Z,-1.92
2022-12-19T00:04:23.119Z,-1.92
2022-12-19T00:04:34.836Z,-1.92
2022-12-19T00:04:45.616Z,-1.90
2022-12-19T00:04:56.367Z,-1.92
2022-12-19T00:05:07.177Z,-1.90
2022-12-19T00:05:18.900Z,-1.88
2022-12-19T00:05:30.649Z,-1.90
2022-12-19T00:05:43.605Z,-1.90
2022-12-19T00:05:55.333Z,-1.88
2022-12-19T00:06:06.127Z,-1.90
2022-12-19T00:06:17.867Z,-1.88
2022-12-19T00:06:28.682Z,-1.87
2022-12-19T00:06:43.872Z,-1.87
2022-12-19T00:06:56.559Z,-1.85
2022-12-19T00:07:07.327Z,-1.87
2022-12-19T00:07:18.099Z,-1.87
2022-12-19T00:07:29.817Z,-1.88
2022-12-19T00:07:42.257Z,-1.87
2022-12-19T00:07:54.215Z,-1.87
2022-12-19T00:08:14.529Z,-1.85
2022-12-19T00:08:23.308Z,-1.87
2022-12-19T00:08:36.921Z,-1.85
2022-12-19T00:08:47.687Z,-1.85
2022-12-19T00:08:58.456Z,-1.84
2022-12-19T00:09:10.929Z,-1.84
2022-12-19T00:09:22.697Z,-1.85
2022-12-19T00:09:34.967Z,-1.85
2022-12-19T00:09:47.428Z,-1.84
2022-12-19T00:10:01.153Z,-1.84
2022-12-19T00:10:11.917Z,-1.82
2022-12-19T00:10:22.686Z,-1.84
2022-12-19T00:10:34.407Z,-1.82
2022-12-19T00:10:46.903Z,-1.82
2022-12-19T00:11:02.395Z,-1.82
2022-12-19T00:11:14.126Z,-1.82
2022-12-19T00:11:25.877Z,-1.82
2022-12-19T00:11:38.626Z,-1.81
2022-12-19T00:11:51.119Z,-1.82
2022-12-19T00:12:01.896Z,-1.82
2022-12-19T00:12:18.838Z,-1.80
2022-12-19T00:12:28.287Z,-1.81
2022-12-19T00:12:40.079Z,-1.81
2022-12-19T00:12:51.819Z,-1.81
2022-12-19T00:13:03.591Z,-1.80
2022-12-19T00:13:15.320Z,-1.80
2022-12-19T00:13:27.797Z,-1.81
2022-12-19T00:13:42.448Z,-1.78
2022-12-19T00:13:54.675Z,-1.80
2022-12-19T00:14:05.417Z,-1.78
2022-12-19T00:14:16.210Z,-1.80
2022-12-19T00:14:26.947Z,-1.80
2022-12-19T00:14:39.921Z,-1.80
2022-12-19T00:14:52.338Z,-1.78
2022-12-19T00:15:04.849Z,-1.78
2022-12-19T00:15:15.579Z,-1.78
2022-12-19T00:15:27.376Z,-1.80
2022-12-19T00:15:39.099Z,-1.78
2022-12-19T00:15:49.923Z,-1.77
2022-12-19T00:16:00.829Z,-1.78
2022-12-19T00:16:12.551Z,-1.77
2022-12-19T00:16:23.344Z,-1.77
2022-12-19T00:16:34.175Z,-1.78
2022-12-19T00:16:46.532Z,-1.77
2022-12-19T00:17:00.370Z,-1.77
2022-12-19T00:17:11.571Z,-1.78
2022-12-19T00:17:22.347Z,-1.77
2022-12-19T00:17:34.048Z,-1.75
2022-12-19T00:17:47.549Z,-1.77
2022-12-19T00:17:59.760Z,-1.77
2022-12-19T00:18:10.499Z,-1.77
2022-12-19T00:18:22.993Z,-1.77
2022-12-19T00:18:35.438Z,-1.77
2022-12-19T00:18:47.158Z,-1.75
2022-12-19T00:18:59.426Z,-1.75
2022-12-19T00:19:10.189Z,-1.75
2022-12-19T00:19:22.457Z,-1.74
2022-12-19T00:19:34.418Z,-1.77
2022-12-19T00:19:46.868Z,-1.75
2022-12-19T00:19:59.317Z,-1.74
2022-12-19T00:20:10.105Z,-1.74
2022-12-19T00:20:23.318Z,-1.74
2022-12-19T00:20:35.759Z,-1.74
2022-12-19T00:20:48.210Z,-1.75
2022-12-19T00:20:58.997Z,-1.74
2022-12-19T00:21:09.777Z,-1.74
2022-12-19T00:21:20.575Z,-1.72
2022-12-19T00:21:31.368Z,-1.72
2022-12-19T00:21:45.717Z,-1.70
2022-12-19T00:21:56.458Z,-1.72
2022-12-19T00:22:11.322Z,-1.70
2022-12-19T00:22:23.400Z,-1.70
2022-12-19T00:22:35.112Z,-1.70
2022-12-19T00:22:45.918Z,-1.70
2022-12-19T00:22:58.358Z,-1.70
2022-12-19T00:23:10.800Z,-1.70
2022-12-19T00:23:21.618Z,-1.69
2022-12-19T00:23:33.399Z,-1.70
2022-12-19T00:23:44.159Z,-1.69
2022-12-19T00:23:55.899Z,-1.69
2022-12-19T00:24:20.083Z,-1.70
2022-12-19T00:24:25.679Z,-1.69
2022-12-19T00:24:36.439Z,-1.72
2022-12-19T00:24:48.923Z,-1.70
2022-12-19T00:25:00.633Z,-1.69
2022-12-19T00:25:13.723Z,-1.69
2022-12-19T00:25:26.389Z,-1.69
2022-12-19T00:25:39.644Z,-1.69
2022-12-19T00:25:51.858Z,-1.67
2022-12-19T00:26:04.941Z,-1.69
2022-12-19T00:26:17.217Z,-1.67
2022-12-19T00:26:29.700Z,-1.67
2022-12-19T00:26:41.441Z,-1.66
2022-12-19T00:26:53.200Z,-1.67
2022-12-19T00:27:04.931Z,-1.67
2022-12-19T00:27:15.692Z,-1.67
2022-12-19T00:27:26.460Z,-1.66
2022-12-19T00:27:38.722Z,-1.66
2022-12-19T00:27:51.430Z,-1.66
2022-12-19T00:28:03.891Z,-1.66
2022-12-19T00:28:15.620Z,-1.66
2022-12-19T00:28:30.033Z,-1.66
2022-12-19T00:28:42.304Z,-1.66
2022-12-19T00:28:54.040Z,-1.67
2022-12-19T00:29:06.765Z,-1.69
2022-12-19T00:29:23.937Z,-1.67
2022-12-19T00:29:34.709Z,-1.67
2022-12-19T00:29:48.169Z,-1.67
2022-12-19T00:30:01.107Z,-1.67
2022-12-19T00:30:12.852Z,-1.67
2022-12-19T00:30:24.610Z,-1.66
2022-12-19T00:30:35.758Z,-1.67
2022-12-19T00:30:47.707Z,-1.67
2022-12-19T00:30:58.471Z,-1.67
2022-12-19T00:31:10.784Z,-1.67
2022-12-19T00:31:21.606Z,-1.66
2022-12-19T00:31:33.945Z,-1.67
2022-12-19T00:31:46.272Z,-1.66
2022-12-19T00:31:59.085Z,-1.66
2022-12-19T00:32:11.356Z,-1.67
2022-12-19T00:32:26.067Z,-1.67
2022-12-19T00:32:40.320Z,-1.66
2022-12-19T00:32:52.553Z,-1.69
2022-12-19T00:33:04.290Z,-1.67
2022-12-19T00:33:16.529Z,-1.67
2022-12-19T00:33:28.980Z,-1.67
2022-12-19T00:33:43.609Z,-1.66
2022-12-19T00:33:54.543Z,-1.66
2022-12-19T00:34:36.338Z,0.00
2022-12-19T00:34:48.040Z,-1.69
2022-12-19T00:34:58.800Z,-1.67
2022-12-19T00:35:13.549Z,-1.69
2022-12-19T00:35:25.276Z,-1.66
2022-12-19T00:35:36.059Z,-1.66
2022-12-19T00:35:47.779Z,-1.66
2022-12-19T00:35:58.540Z,-1.66
2022-12-19T00:36:10.250Z,-1.66
2022-12-19T00:36:22.861Z,-1.66
2022-12-19T00:36:33.892Z,-1.66
2022-12-19T00:36:47.025Z,-1.66
2022-12-19T00:37:00.249Z,-1.64
2022-12-19T00:37:12.004Z,-1.64
2022-12-19T00:37:23.512Z,-1.66
2022-12-19T00:37:34.292Z,-1.64
2022-12-19T00:37:49.246Z,-1.64
2022-12-19T00:38:01.550Z,-1.64
2022-12-19T00:38:13.271Z,-1.64
2022-12-19T00:38:24.013Z,-1.64
2022-12-19T00:38:35.780Z,-1.64
2022-12-19T00:38:47.480Z,-1.64
2022-12-19T00:38:59.952Z,-1.64
2022-12-19T00:39:10.752Z,-1.63
2022-12-19T00:39:21.527Z,-1.64
2022-12-19T00:39:33.220Z,-1.63
2022-12-19T00:39:44.021Z,-1.63
2022-12-19T00:39:54.778Z,-1.63
2022-12-19T00:40:06.510Z,-1.63
2022-12-19T00:40:18.962Z,-1.63
2022-12-19T00:40:30.690Z,-1.62
2022-12-19T00:40:42.486Z,-1.63
2022-12-19T00:40:54.220Z,-1.62
2022-12-19T00:41:04.981Z,-1.63
2022-12-19T00:41:16.831Z,-1.60
2022-12-19T00:41:29.939Z,-1.63
2022-12-19T00:41:42.217Z,-1.62
2022-12-19T00:41:53.143Z,-1.62
2022-12-19T00:42:05.382Z,-1.60
2022-12-19T00:42:16.129Z,-1.60
2022-12-19T00:42:26.870Z,-1.60
2022-12-19T00:42:37.691Z,-1.60
2022-12-19T00:42:53.502Z,-1.62
2022-12-19T00:43:04.519Z,-1.60
2022-12-19T00:43:17.492Z,-1.60
2022-12-19T00:43:29.233Z,-1.60
2022-12-19T00:43:40.054Z,-1.60
2022-12-19T00:43:50.781Z,-1.60
2022-12-19T00:44:02.541Z,-1.59
2022-12-19T00:44:13.392Z,-1.59
2022-12-19T00:44:26.390Z,-1.60
2022-12-19T00:44:38.601Z,-1.60
2022-12-19T00:44:50.579Z,-1.59
2022-12-19T00:45:01.349Z,-1.59
2022-12-19T00:45:13.060Z,-1.59
2022-12-19T00:45:25.331Z,-1.59
2022-12-19T00:45:37.808Z,-1.59
2022-12-19T00:45:48.625Z,-1.57
2022-12-19T00:46:01.153Z,-1.57
2022-12-19T00:46:12.891Z,-1.57
2022-12-19T00:46:26.624Z,-1.57
2022-12-19T00:46:38.852Z,-1.56
2022-12-19T00:46:53.036Z,-1.57
2022-12-19T00:47:03.880Z,-1.56
2022-12-19T00:47:15.635Z,-1.56
2022-12-19T00:47:26.411Z,-1.56
2022-12-19T00:47:37.171Z,-1.54
2022-12-19T00:47:49.403Z,-1.54
2022-12-19T00:48:00.203Z,-1.53
2022-12-19T00:48:10.992Z,-1.54
2022-12-19T00:48:24.578Z,-1.54
2022-12-19T00:48:35.318Z,-1.53
2022-12-19T00:48:47.764Z,-1.53
2022-12-19T00:48:58.521Z,-1.53
2022-12-19T00:49:10.991Z,-1.53
2022-12-19T00:49:23.444Z,-1.53
2022-12-19T00:49:34.191Z,-1.53
2022-12-19T00:49:48.113Z,-1.54
2022-12-19T00:50:01.354Z,-1.51
2022-12-19T00:50:12.105Z,-1.53
2022-12-19T00:50:24.562Z,-1.53
2022-12-19T00:50:35.316Z,-1.53
2022-12-19T00:50:48.521Z,-1.51
2022-12-19T00:51:00.271Z,-1.53
2022-12-19T00:51:11.015Z,-1.53
2022-12-19T00:51:21.785Z,-1.53
2022-12-19T00:51:33.560Z,-1.53
2022-12-19T00:51:45.370Z,-1.53
2022-12-19T00:51:57.841Z,-1.53
2022-12-19T00:52:09.613Z,-1.53
2022-12-19T00:52:21.585Z,-1.53
2022-12-19T00:52:35.174Z,-1.51
2022-12-19T00:52:48.892Z,-1.49
2022-12-19T00:52:59.683Z,-1.51
2022-12-19T00:53:11.441Z,-1.51
2022-12-19T00:53:23.853Z,-1.51
2022-12-19T00:53:36.309Z,-1.51
2022-12-19T00:53:48.562Z,-1.51
2022-12-19T00:54:00.351Z,-1.51
2022-12-19T00:54:14.736Z,-1.51
2022-12-19T00:54:25.864Z,-1.49
2022-12-19T00:54:39.009Z,-1.49
2022-12-19T00:54:51.410Z,-1.51
2022-12-19T00:55:05.067Z,-1.49
2022-12-19T00:55:20.346Z,-1.49
2022-12-19T00:55:31.414Z,-1.49
2022-12-19T00:55:43.852Z,-1.51
2022-12-19T00:55:54.623Z,-1.48
2022-12-19T00:56:06.341Z,-1.49
2022-12-19T00:56:18.310Z,-1.48
2022-12-19T00:56:29.046Z,-1.49
2022-12-19T00:56:39.803Z,-1.48
2022-12-19T00:56:53.023Z,-1.49
2022-12-19T00:57:04.712Z,-1.49
2022-12-19T00:57:15.472Z,-1.48
2022-12-19T00:57:27.234Z,-1.49
2022-12-19T00:57:39.235Z,-1.49
2022-12-19T00:57:50.003Z,-1.51
2022-12-19T00:58:04.183Z,-1.48
2022-12-19T00:58:14.924Z,-1.48
2022-12-19T00:58:26.646Z,-1.48
2022-12-19T00:58:43.425Z,-1.48
2022-12-19T00:58:55.001Z,-1.48
2022-12-19T00:59:07.446Z,-1.46
2022-12-19T00:59:18.192Z,-1.46
2022-12-19T00:59:35.603Z,-1.48
2022-12-19T00:59:47.345Z,-1.49
2022-12-19T00:59:59.822Z,-1.48
2022-12-19T01:00:11.603Z,-1.46
2022-12-19T01:00:23.855Z,-1.46
2022-12-19T01:00:36.331Z,-1.46
2022-12-19T01:00:48.690Z,-1.48
2022-12-19T01:01:00.474Z,-1.49
2022-12-19T01:01:12.278Z,-1.46
2022-12-19T01:01:25.219Z,-1.45
2022-12-19T01:01:36.385Z,-1.46
2022-12-19T01:01:48.456Z,-1.46
2022-12-19T01:02:01.586Z,-1.46
2022-12-19T01:02:14.071Z,-1.46
2022-12-19T01:02:26.053Z,-1.46
2022-12-19T01:02:37.093Z,-1.46
2022-12-19T01:02:49.062Z,-1.46
2022-12-19T01:03:00.956Z,-1.46
2022-12-19T01:03:15.806Z,-1.45
2022-12-19T01:03:28.274Z,-1.45
2022-12-19T01:03:39.063Z,-1.43
2022-12-19T01:04:25.952Z,-1.43
2022-12-19T01:04:28.901Z,-1.45
2022-12-19T01:04:41.942Z,-1.43
2022-12-19T01:04:55.371Z,-1.43
2022-12-19T01:05:07.323Z,-1.43
2022-12-19T01:05:19.065Z,-1.43
2022-12-19T01:05:31.503Z,-1.43
2022-12-19T01:05:43.256Z,-1.43
2022-12-19T01:05:55.369Z,-1.42
2022-12-19T01:06:07.886Z,-1.42
2022-12-19T01:06:20.365Z,-1.42
2022-12-19T01:06:32.127Z,-1.43
2022-12-19T01:06:45.020Z,-1.42
2022-12-19T01:07:01.101Z,-1.42
2022-12-19T01:07:13.029Z,-1.43
2022-12-19T01:07:24.764Z,-1.42
2022-12-19T01:07:36.513Z,-1.42
2022-12-19T01:07:47.315Z,-1.42
2022-12-19T01:07:58.108Z,-1.42
2022-12-19T01:08:09.859Z,-1.42
2022-12-19T01:08:22.354Z,-1.42
2022-12-19T01:08:34.294Z,-1.42
2022-12-19T01:08:45.034Z,-1.42
2022-12-19T01:08:58.266Z,-1.42
2022-12-19T01:09:09.015Z,-1.41
2022-12-19T01:09:22.275Z,-1.42
2022-12-19T01:09:34.018Z,-1.41
2022-12-19T01:09:45.805Z,-1.41
2022-12-19T01:10:00.228Z,-1.41
2022-12-19T01:10:12.943Z,-1.41
2022-12-19T01:10:25.394Z,-1.42
2022-12-19T01:10:37.628Z,-1.41
2022-12-19T01:10:48.455Z,-1.39
2022-12-19T01:11:00.207Z,-1.41
2022-12-19T01:11:10.935Z,-1.38
2022-12-19T01:11:22.668Z,-1.39
2022-12-19T01:11:35.914Z,-1.41
2022-12-19T01:11:46.726Z,-1.39
2022-12-19T01:11:58.987Z,-1.41
2022-12-19T01:12:10.723Z,-1.39
2022-12-19T01:12:23.956Z,-1.41
2022-12-19T01:12:36.626Z,-1.39
2022-12-19T01:12:48.371Z,-1.41
2022-12-19T01:13:00.129Z,-1.39
2022-12-19T01:13:10.903Z,-1.38
2022-12-19T01:13:21.666Z,-1.38
2022-12-19T01:13:33.400Z,-1.38
2022-12-19T01:13:47.954Z,-1.39
2022-12-19T01:13:58.744Z,-1.38
2022-12-19T01:14:10.990Z,-1.38
2022-12-19T01:14:23.209Z,-1.36
2022-12-19T01:14:35.157Z,-1.38
2022-12-19T01:14:45.909Z,-1.38
2022-12-19T01:15:04.399Z,-1.38
2022-12-19T01:15:14.206Z,-1.38
2022-12-19T01:15:24.934Z,-1.39
2022-12-19T01:15:36.656Z,-1.38
2022-12-19T01:15:49.166Z,-1.38
2022-12-19T01:16:00.039Z,-1.38
2022-12-19T01:16:11.900Z,-1.38
2022-12-19T01:16:23.655Z,-1.36
2022-12-19T01:16:36.218Z,-1.36
2022-12-19T01:16:48.503Z,-1.36
2022-12-19T01:17:01.735Z,-1.36
2022-12-19T01:17:12.517Z,-1.38
2022-12-19T01:17:25.655Z,-1.36
2022-12-19T01:17:44.341Z,-1.36
2022-12-19T01:17:53.053Z,-1.38
2022-12-19T01:18:03.805Z,-1.36
2022-12-19T01:18:16.345Z,-1.36
2022-12-19T01:18:28.794Z,-1.35
2022-12-19T01:18:39.577Z,-1.36
2022-12-19T01:18:51.315Z,-1.36
2022-12-19T01:19:03.763Z,-1.36
2022-12-19T01:19:18.408Z,-1.35
2022-12-19T01:19:31.157Z,-1.35
2022-12-19T01:19:44.432Z,-1.33
2022-12-19T01:19:56.506Z,-1.35
2022-12-19T01:20:08.754Z,-1.35
2022-12-19T01:20:29.155Z,-1.33
2022-12-19T01:20:37.844Z,-1.33
2022-12-19T01:20:49.589Z,-1.33
2022-12-19T01:21:01.340Z,-1.33
2022-12-19T01:21:13.026Z,-1.33
2022-12-19T01:21:23.806Z,-1.31
2022-12-19T01:21:34.544Z,-1.31
2022-12-19T01:21:45.276Z,-1.33
2022-12-19T01:21:58.518Z,-1.33
2022-12-19T01:22:09.707Z,-1.31
2022-12-19T01:22:22.837Z,-1.33
2022-12-19T01:22:35.276Z,-1.33
2022-12-19T01:22:47.752Z,-1.31
2022-12-19T01:22:59.958Z,-1.31
2022-12-19T01:23:11.135Z,-1.31
2022-12-19T01:23:21.889Z,-1.31
2022-12-19T01:23:32.691Z,-1.31
2022-12-19T01:23:43.479Z,-1.31
2022-12-19T01:23:54.246Z,-1.31
2022-12-19T01:24:06.736Z,-1.30
2022-12-19T01:24:19.360Z,-1.30
2022-12-19T01:24:31.046Z,-1.30
2022-12-19T01:24:41.820Z,-1.30
2022-12-19T01:24:52.566Z,-1.31
2022-12-19T01:25:04.296Z,-1.28
2022-12-19T01:25:17.528Z,-1.30
2022-12-19T01:25:30.002Z,-1.30
2022-12-19T01:25:45.939Z,-1.28
2022-12-19T01:25:57.697Z,-1.28
2022-12-19T01:26:08.486Z,-1.28
2022-12-19T01:26:21.457Z,-1.28
2022-12-19T01:26:34.448Z,-1.28
2022-12-19T01:26:47.483Z,-1.28
2022-12-19T01:26:58.217Z,-1.28
2022-12-19T01:27:10.720Z,-1.27
2022-12-19T01:27:22.472Z,-1.28
2022-12-19T01:27:33.206Z,-1.27
2022-12-19T01:27:45.227Z,-1.28
2022-12-19T01:27:56.973Z,-1.27
2022-12-19T01:28:08.685Z,-1.25
2022-12-19T01:28:22.057Z,-1.28
2022-12-19T01:28:33.456Z,-1.25
2022-12-19T01:28:45.727Z,-1.27
2022-12-19T01:28:58.971Z,-1.25
2022-12-19T01:29:11.686Z,-1.27
2022-12-19T01:29:22.465Z,-1.25
2022-12-19T01:29:34.661Z,-1.25
2022-12-19T01:29:52.576Z,-1.27
2022-12-19T01:30:04.546Z,-1.25
2022-12-19T01:30:15.424Z,-1.25
2022-12-19T01:30:26.165Z,-1.25
2022-12-19T01:30:39.914Z,-1.25
2022-12-19T01:30:52.377Z,-1.24
2022-12-19T01:31:05.599Z,-1.25
2022-12-19T01:31:18.007Z,-1.24
2022-12-19T01:31:30.577Z,-1.24
2022-12-19T01:31:42.384Z,-1.24
2022-12-19T01:31:55.104Z,-1.23
2022-12-19T01:32:05.920Z,-1.24
2022-12-19T01:32:17.687Z,-1.24
2022-12-19T01:32:29.387Z,-1.24
2022-12-19T01:32:41.837Z,-1.24
2022-12-19T01:32:54.295Z,-1.24
2022-12-19T01:33:06.496Z,-1.23
2022-12-19T01:33:17.257Z,-1.23
2022-12-19T01:33:29.008Z,-1.23
2022-12-19T01:33:40.745Z,-1.24
2022-12-19T01:33:54.626Z,-1.23
2022-12-19T01:34:05.378Z,-1.23
2022-12-19T01:34:16.330Z,-1.23
2022-12-19T01:34:27.108Z,-1.23
2022-12-19T01:34:37.887Z,-1.23
2022-12-19T01:34:49.657Z,-1.21
2022-12-19T01:35:02.101Z,-1.23
2022-12-19T01:35:21.706Z,-1.24
2022-12-19T01:35:29.707Z,-1.23
2022-12-19T01:35:41.458Z,-1.24
2022-12-19T01:35:52.249Z,-1.24
2022-12-19T01:36:04.949Z,-1.23
2022-12-19T01:36:15.728Z,-1.24
2022-12-19T01:36:26.458Z,-1.23
2022-12-19T01:36:39.777Z,-1.23
2022-12-19T01:36:51.050Z,-1.24
2022-12-19T01:37:05.271Z,-1.24
2022-12-19T01:37:17.028Z,-1.24
2022-12-19T01:37:28.805Z,-1.24
2022-12-19T01:37:40.600Z,-1.24
2022-12-19T01:37:52.309Z,-1.23
2022-12-19T01:38:09.397Z,-1.24
2022-12-19T01:38:20.209Z,-1.24
2022-12-19T01:38:31.948Z,-1.24
2022-12-19T01:38:42.737Z,-1.24
2022-12-19T01:38:55.704Z,-1.24
2022-12-19T01:39:08.148Z,-1.24
2022-12-19T01:39:20.628Z,-1.24
2022-12-19T01:39:33.503Z,-1.23
2022-12-19T01:39:47.322Z,-1.23
2022-12-19T01:39:59.071Z,-1.24
2022-12-19T01:40:09.817Z,-1.24
2022-12-19T01:40:20.579Z,-1.23
2022-12-19T01:40:33.040Z,-1.23
2022-12-19T01:40:43.820Z,-1.24
2022-12-19T01:40:57.267Z,-1.23
2022-12-19T01:41:09.739Z,-1.24
2022-12-19T01:41:20.478Z,-1.23
2022-12-19T01:41:32.231Z,-1.24
2022-12-19T01:41:43.020Z,-1.23
2022-12-19T01:41:53.769Z,-1.25
2022-12-19T01:42:04.559Z,-1.24
2022-12-19T01:42:15.371Z,-1.24
2022-12-19T01:42:29.450Z,-1.23
2022-12-19T01:42:41.699Z,-1.24
2022-12-19T01:42:53.431Z,-1.23
2022-12-19T01:43:05.128Z,-1.23
2022-12-19T01:43:15.871Z,-1.24
2022-12-19T01:43:27.598Z,-1.24
2022-12-19T01:43:39.350Z,-1.24
2022-12-19T01:43:54.151Z,-1.23
2022-12-19T01:44:07.130Z,-1.23
2022-12-19T01:44:19.400Z,-1.24
2022-12-19T01:44:31.868Z,-1.23
2022-12-19T01:44:44.112Z,-1.24
2022-12-19T01:44:54.892Z,-1.23
2022-12-19T01:45:05.689Z,-1.23
2022-12-19T01:45:16.478Z,-1.23
2022-12-19T01:45:33.799Z,-1.23
2022-12-19T01:45:47.421Z,-1.23
2022-12-19T01:46:00.776Z,-1.23
2022-12-19T01:46:11.643Z,-1.23
2022-12-19T01:46:24.373Z,-1.23
2022-12-19T01:46:39.842Z,-1.23
2022-12-19T01:46:51.778Z,-1.23
2022-12-19T01:47:04.014Z,-1.23
2022-12-19T01:47:16.466Z,-1.21
2022-12-19T01:47:28.710Z,-1.21
2022-12-19T01:47:39.508Z,-1.21
2022-12-19T01:47:53.472Z,-1.21
2022-12-19T01:48:06.240Z,-1.21
2022-12-19T01:48:18.711Z,-1.20
2022-12-19T01:48:31.220Z,-1.20
2022-12-19T01:48:42.050Z,-1.20
2022-12-19T01:48:52.818Z,-1.20
2022-12-19T01:49:05.320Z,-1.21
2022-12-19T01:49:17.809Z,-1.18
2022-12-19T01:49:32.670Z,-1.20
2022-12-19T01:49:44.402Z,-1.20
2022-12-19T01:49:57.633Z,-1.20
2022-12-19T01:50:09.329Z,-1.18
2022-12-19T01:50:22.291Z,-1.17
2022-12-19T01:50:34.742Z,-1.18
2022-12-19T01:50:53.598Z,-1.18
2022-12-19T01:51:04.495Z,-1.17
2022-12-19T01:51:16.742Z,-1.17
2022-12-19T01:51:28.681Z,-1.17
2022-12-19T01:51:40.402Z,-1.17
2022-12-19T01:51:52.153Z,-1.17
2022-12-19T01:52:02.931Z,-1.17
2022-12-19T01:52:23.520Z,-1.17
2022-12-19T01:52:30.262Z,-1.17
2022-12-19T01:52:41.031Z,-1.17
2022-12-19T01:52:53.491Z,-1.17
2022-12-19T01:53:04.256Z,-1.17
2022-12-19T01:53:15.019Z,-1.17
2022-12-19T01:53:25.767Z,-1.17
2022-12-19T01:53:37.953Z,-1.15
2022-12-19T01:53:53.109Z,-1.15
2022-12-19T01:54:03.899Z,-1.15
2022-12-19T01:54:14.702Z,-1.17
2022-12-19T01:54:25.493Z,-1.15
2022-12-19T01:54:36.289Z,-1.15
2022-12-19T01:54:47.091Z,-1.13
2022-12-19T01:54:59.352Z,-1.15
2022-12-19T01:55:10.108Z,-1.15
2022-12-19T01:55:21.837Z,-1.15
2022-12-19T01:55:34.290Z,-1.17
2022-12-19T01:55:46.006Z,-1.15
2022-12-19T01:55:57.821Z,-1.13
2022-12-19T01:56:13.495Z,-1.15
2022-12-19T01:56:26.908Z,-1.13
2022-12-19T01:56:37.667Z,-1.13
2022-12-19T01:56:50.096Z,-1.13
2022-12-19T01:57:02.388Z,-1.13
2022-12-19T01:57:14.648Z,-1.13
2022-12-19T01:57:25.438Z,-1.13
2022-12-19T01:57:37.940Z,-1.13
2022-12-19T01:57:50.972Z,-1.13
2022-12-19T01:58:01.729Z,-1.13
2022-12-19T01:58:13.520Z,-1.12
2022-12-19T01:58:25.239Z,-1.13
2022-12-19T01:58:36.983Z,-1.13
2022-12-19T01:58:49.749Z,-1.13
2022-12-19T01:59:05.807Z,-1.10
2022-12-19T01:59:16.232Z,-1.12
2022-12-19T01:59:29.970Z,-1.12
2022-12-19T01:59:42.180Z,-1.12
2022-12-19T01:59:52.989Z,-1.13
2022-12-19T02:00:04.769Z,-1.13
2022-12-19T02:00:16.519Z,-1.12
2022-12-19T02:00:29.733Z,-1.12
2022-12-19T02:00:40.548Z,-1.12
2022-12-19T02:00:51.375Z,-1.12
2022-12-19T02:01:03.120Z,-1.10
2022-12-19T02:01:14.924Z,-1.12
2022-12-19T02:01:25.760Z,-1.12
2022-12-19T02:01:43.998Z,-1.13
2022-12-19T02:01:54.128Z,-1.13
2022-12-19T02:02:06.717Z,-1.13
2022-12-19T02:02:17.723Z,-1.10
2022-12-19T02:02:31.070Z,-1.13
2022-12-19T02:02:43.415Z,-1.10
2022-12-19T02:02:55.253Z,-1.12
2022-12-19T02:03:07.040Z,-1.13
2022-12-19T02:03:19.785Z,-1.10
2022-12-19T02:03:30.602Z,-1.12
2022-12-19T02:03:44.330Z,-1.12
2022-12-19T02:03:57.303Z,-1.12
2022-12-19T02:04:09.032Z,-1.10
2022-12-19T02:04:19.889Z,-1.12
2022-12-19T02:04:32.549Z,-1.10
2022-12-19T02:04:45.042Z,-1.10
2022-12-19T02:04:56.809Z,-1.12
2022-12-19T02:05:07.641Z,-1.10
2022-12-19T02:05:18.409Z,-1.10
2022-12-19T02:05:30.871Z,-1.10
2022-12-19T02:05:42.649Z,-1.12
2022-12-19T02:05:54.410Z,-1.10
2022-12-19T02:06:05.167Z,-1.10
2022-12-19T02:06:16.919Z,-1.10
2022-12-19T02:06:30.059Z,-1.10
2022-12-19T02:06:41.841Z,-1.10
2022-12-19T02:06:54.322Z,-1.10
2022-12-19T02:07:15.110Z,-1.10
2022-12-19T02:07:21.719Z,-1.10
2022-12-19T02:07:32.504Z,-1.12
2022-12-19T02:07:44.200Z,-1.10
2022-12-19T02:07:55.012Z,-1.12
2022-12-19T02:08:07.474Z,-1.10
2022-12-19T02:08:18.249Z,-1.10
2022-12-19T02:08:31.485Z,-1.12
2022-12-19T02:08:45.320Z,-1.12
2022-12-19T02:08:57.532Z,-1.12
2022-12-19T02:09:10.081Z,-1.12
2022-12-19T02:09:22.334Z,-1.12
2022-12-19T02:09:33.164Z,-1.13
2022-12-19T02:09:44.885Z,-1.10
2022-12-19T02:09:57.161Z,-1.12
2022-12-19T02:10:08.400Z,-1.12
2022-12-19T02:10:19.174Z,-1.12
2022-12-19T02:10:31.619Z,-1.12
2022-12-19T02:10:44.086Z,-1.13
2022-12-19T02:10:57.302Z,-1.12
2022-12-19T02:11:09.041Z,-1.13
2022-12-19T02:11:22.814Z,-1.12
2022-12-19T02:11:35.294Z,-1.13
2022-12-19T02:11:47.804Z,-1.12
2022-12-19T02:11:59.513Z,-1.12
2022-12-19T02:12:11.274Z,-1.13
2022-12-19T02:12:23.023Z,-1.13
2022-12-19T02:12:33.785Z,-1.12
2022-12-19T02:12:45.537Z,-1.13
2022-12-19T02:12:57.294Z,-1.13
2022-12-19T02:13:09.083Z,-1.15
2022-12-19T02:13:19.856Z,-1.13
2022-12-19T02:13:30.644Z,-1.12
2022-12-19T02:13:42.747Z,-1.12
2022-12-19T02:13:57.543Z,-1.12
2022-12-19T02:14:09.825Z,-1.13
2022-12-19T02:14:20.626Z,-1.12
2022-12-19T02:14:31.424Z,-1.10
2022-12-19T02:14:43.705Z,-1.12
2022-12-19T02:14:54.497Z,-1.10
2022-12-19T02:15:13.063Z,-1.10
2022-12-19T02:15:23.930Z,-1.12
2022-12-19T02:15:34.724Z,-1.12
2022-12-19T02:15:47.695Z,-1.12
2022-12-19T02:15:58.502Z,-1.12
2022-12-19T02:16:09.423Z,-1.12
2022-12-19T02:16:20.211Z,-1.12
2022-12-19T02:16:33.554Z,-1.13
2022-12-19T02:16:45.353Z,-1.10
2022-12-19T02:16:57.097Z,-1.12
2022-12-19T02:17:07.905Z,-1.10
2022-12-19T02:17:19.665Z,-1.10
2022-12-19T02:17:30.457Z,-1.12
2022-12-19T02:17:42.307Z,-1.10
2022-12-19T02:17:56.597Z,-1.10
2022-12-19T02:18:07.395Z,-1.10
2022-12-19T02:18:19.336Z,-1.09
2022-12-19T02:18:31.799Z,-1.10
2022-12-19T02:18:44.546Z,-1.10
2022-12-19T02:18:55.319Z,-1.10
2022-12-19T02:19:06.090Z,-1.10
2022-12-19T02:19:21.397Z,-1.10
2022-12-19T02:19:33.925Z,-1.10
2022-12-19T02:19:45.672Z,-1.10
2022-12-19T02:19:57.412Z,-1.12
2022-12-19T02:20:09.877Z,-1.10
2022-12-19T02:20:22.328Z,-1.10
2022-12-19T02:20:33.139Z,-1.10
2022-12-19T02:20:43.964Z,-1.10
2022-12-19T02:20:55.701Z,-1.10
2022-12-19T02:21:07.402Z,-1.12
2022-12-19T02:21:18.158Z,-1.10
2022-12-19T02:21:29.878Z,-1.12
2022-12-19T02:21:41.682Z,-1.10
2022-12-19T02:21:54.939Z,-1.10
2022-12-19T02:22:05.890Z,-1.12
2022-12-19T02:22:19.525Z,-1.10
2022-12-19T02:22:30.362Z,-1.12
2022-12-19T02:22:42.599Z,-1.10
2022-12-19T02:22:55.830Z,-1.10
2022-12-19T02:23:06.571Z,-1.10
2022-12-19T02:23:19.946Z,-1.10
2022-12-19T02:23:32.385Z,-1.10
2022-12-19T02:23:43.203Z,-1.10
2022-12-19T02:23:56.430Z,-1.10
2022-12-19T02:24:07.221Z,-1.10
2022-12-19T02:24:17.988Z,-1.10
2022-12-19T02:24:30.453Z,-1.10
2022-12-19T02:24:44.852Z,-1.10
2022-12-19T02:24:57.332Z,-1.10
2022-12-19T02:25:09.070Z,-1.12
2022-12-19T02:25:19.858Z,-1.12
2022-12-19T02:25:31.620Z,-1.10
2022-12-19T02:25:44.117Z,-1.12
2022-12-19T02:25:57.070Z,-1.12
2022-12-19T02:26:08.812Z,-1.10
2022-12-19T02:26:19.570Z,-1.12
2022-12-19T02:26:31.280Z,-1.12
2022-12-19T02:26:43.095Z,-1.13
2022-12-19T02:26:54.931Z,-1.13
2022-12-19T02:27:06.660Z,-1.12
2022-12-19T02:27:19.150Z,-1.12
2022-12-19T02:27:32.416Z,-1.12
2022-12-19T02:27:48.074Z,-1.13
2022-12-19T02:27:59.044Z,-1.13
2022-12-19T02:28:11.571Z,-1.13
2022-12-19T02:28:23.423Z,-1.13
2022-12-19T02:28:35.970Z,-1.13
2022-12-19T02:28:50.242Z,-1.12
2022-12-19T02:29:01.983Z,-1.10
2022-12-19T02:29:13.793Z,-1.12
2022-12-19T02:29:25.522Z,-1.12
2022-12-19T02:29:38.072Z,-1.12
2022-12-19T02:29:52.161Z,-1.12
2022-12-19T02:30:03.890Z,-1.12
2022-12-19T02:30:17.625Z,-1.12
2022-12-19T02:30:28.423Z,-1.12
2022-12-19T02:30:40.695Z,-1.10
2022-12-19T02:30:51.510Z,-1.12
2022-12-19T02:31:11.414Z,-1.13
2022-12-19T02:31:20.877Z,-1.12
2022-12-19T02:31:32.605Z,-1.12
2022-12-19T02:31:44.695Z,-1.12
2022-12-19T02:31:57.175Z,-1.12
2022-12-19T02:32:09.743Z,-1.12
2022-12-19T02:32:20.514Z,-1.10
2022-12-19T02:32:32.731Z,-1.10
2022-12-19T02:32:48.460Z,-1.10
2022-12-19T02:33:00.165Z,-1.10
2022-12-19T02:33:11.922Z,-1.10
2022-12-19T02:33:22.698Z,-1.10
2022-12-19T02:33:34.907Z,-1.10
2022-12-19T02:33:47.384Z,-1.09
2022-12-19T02:33:59.828Z,-1.10
2022-12-19T02:34:10.614Z,-1.12
2022-12-19T02:34:23.094Z,-1.09
2022-12-19T02:34:34.863Z,-1.09
2022-12-19T02:34:45.677Z,-1.10
2022-12-19T02:34:56.455Z,-1.10
2022-12-19T02:35:07.233Z,-1.10
2022-12-19T02:35:19.456Z,-1.10
2022-12-19T02:35:31.962Z,-1.12
2022-12-19T02:35:45.623Z,-1.10
2022-12-19T02:35:57.427Z,-1.10
2022-12-19T02:36:09.147Z,-1.12
2022-12-19T02:36:20.908Z,-1.12
2022-12-19T02:36:36.809Z,-1.10
2022-12-19T02:36:50.818Z,-1.10